1854 Tropical Storm NOT_NAMED (1854253N14303)


IBTrACS version v04r00. Visit IBTrACS website for data access.
Please direct all questions to the IBTrACS Q and A forum

Storm track - Intensity - Wind Radii - Intensity Data - Source Data - All data

Summary Information

Storm ID 1854253N14303
Start Sep 9 12Z
Landfall Sep 14 00Z, Sep 15 00Z
Max Intensity 45 kt (Sep 11 18Z)
End Sep 15 12Z
ATCF IDs
Track status Best track data.

Storm track plot

Map of storm track

Intensity plots

Map of storm track

Radial wind information

No radial wind information for this storm


Position and Intensity Table

BASIN ISO_TIME_________ NATURE LAT LON MLC WIND
degrees north degrees east kts
NA 1854-09-09 12:00:00 TS 14.00 -57.50 30
NA 15:00:00 TS 14.16 -58.05 30
NA 18:00:00 TS 14.30 -58.60 30
NA 21:00:00 TS 14.41 -59.15 30
NA 1854-09-10 00:00:00 TS 14.50 -59.70 30
NA 03:00:00 TS 14.60 -60.26 32
NA 06:00:00 TS 14.70 -60.80 35
NA 09:00:00 TS 14.80 -61.32 35
NA 12:00:00 TS 14.90 -61.80 35
NA 15:00:00 TS 15.00 -62.26 37
NA 18:00:00 TS 15.10 -62.70 40
NA 21:00:00 TS 15.20 -63.14 40
NA 1854-09-11 00:00:00 TS 15.30 -63.60 40
NA 03:00:00 TS 15.41 -64.10 40
NA 06:00:00 TS 15.50 -64.60 40
NA 09:00:00 TS 15.53 -65.06 40
NA 12:00:00 TS 15.60 -65.50 40
NA 15:00:00 TS 15.78 -65.95 42
NA 18:00:00 TS 16.00 -66.40 45
NA 21:00:00 TS 16.15 -66.85 45
NA 1854-09-12 00:00:00 TS 16.30 -67.30 45
NA 03:00:00 TS 16.50 -67.76 45
NA 06:00:00 TS 16.70 -68.20 45
NA 09:00:00 TS 16.86 -68.60 45
NA 12:00:00 TS 17.00 -69.00 45
NA 15:00:00 TS 17.11 -69.44 45
NA 18:00:00 TS 17.20 -69.90 45
NA 21:00:00 TS 17.26 -70.35 45
NA 1854-09-13 00:00:00 TS 17.30 -70.80 45
NA 03:00:00 TS 17.35 -71.26 45
NA 06:00:00 TS 17.40 -71.70 45
NA 09:00:00 TS 17.43 -72.12 42
NA 12:00:00 TS 17.50 -72.50 40
NA 15:00:00 TS 17.68 -72.81 40
NA 18:00:00 TS 17.90 -73.10 40
NA 21:00:00 TS 18.09 -73.40 40
NA 1854-09-14 00:00:00 TS 18.30 -73.70 40
NA 03:00:00 TS 18.54 -74.01 37
NA 06:00:00 TS 18.80 -74.30 35
NA 09:00:00 TS 19.05 -74.63 35
NA 12:00:00 TS 19.30 -74.80 35
NA 15:00:00 TS 19.56 -74.59 35
NA 18:00:00 TS 19.80 -74.30 35
NA 21:00:00 TS 20.01 -74.26 32
NA 1854-09-15 00:00:00 TS 20.20 -74.30 30
NA 03:00:00 TS 20.36 -74.30 30
NA 06:00:00 TS 20.50 -74.30 30
NA 09:00:00 TS 20.61 -74.30 25
NA 12:00:00 ET 20.70 -74.30 20

Source Information

Agency Information
USA
TOKYO
CMA
HKO
NEWDELHI
REUNION
BOM
NADI
WELLINGTON
DS824
TD9636
TD9635
NEUMANN
MLC

All available IBTrACS Data

SEASON BASIN SUBBASIN ISO_TIME_________ NATURE LAT LON DIST2LAND LANDFALL IFLAG USA SSHS MLC LAT MLC LON MLC CLASS MLC WIND STORM SPEED STORM DIR
Year degrees north degrees east km km 1 degrees north degrees east kts kts degrees
1854 NA NA 1854-09-09 12:00:00 TS 14.00 -57.50 530 501 _____________O -1 14.00 -57.50 TD 30 11 287
1854 NA NA 15:00:00 TS 14.16 -58.05 509 480 _____________P -1 14.16 -58.05 TD 30 11 286
1854 NA NA 18:00:00 TS 14.30 -58.60 480 462 _____________O -1 14.30 -58.60 TD 30 11 283
1854 NA NA 21:00:00 TS 14.41 -59.15 458 448 _____________P -1 14.41 -59.15 TD 30 11 281
1854 NA CS 1854-09-10 00:00:00 TS 14.50 -59.70 448 439 _____________O -1 14.50 -59.70 TD 30 11 280
1854 NA CS 03:00:00 TS 14.60 -60.26 443 440 _____________P -1 14.60 -60.26 TD 32 11 281
1854 NA CS 06:00:00 TS 14.70 -60.80 448 447 _____________O -1 14.70 -60.80 TS 35 10 281
1854 NA CS 09:00:00 TS 14.80 -61.32 459 459 _____________P -1 14.80 -61.32 TS 35 10 282
1854 NA CS 12:00:00 TS 14.90 -61.80 470 470 _____________O -1 14.90 -61.80 TS 35 9 282
1854 NA CS 15:00:00 TS 15.00 -62.26 481 463 _____________P -1 15.00 -62.26 TS 37 9 283
1854 NA CS 18:00:00 TS 15.10 -62.70 463 425 _____________O -1 15.10 -62.70 TS 40 9 283
1854 NA CS 21:00:00 TS 15.20 -63.14 425 382 _____________P -1 15.20 -63.14 TS 40 9 283
1854 NA CS 1854-09-11 00:00:00 TS 15.30 -63.60 382 342 _____________O -1 15.30 -63.60 TS 40 9 283
1854 NA CS 03:00:00 TS 15.41 -64.10 342 307 _____________P -1 15.41 -64.10 TS 40 10 282
1854 NA CS 06:00:00 TS 15.50 -64.60 307 292 _____________O -1 15.50 -64.60 TS 40 9 278
1854 NA CS 09:00:00 TS 15.53 -65.06 289 267 _____________P -1 15.53 -65.06 TS 40 9 277
1854 NA CS 12:00:00 TS 15.60 -65.50 267 237 _____________O -1 15.60 -65.50 TS 40 9 286
1854 NA CS 15:00:00 TS 15.78 -65.95 237 212 _____________P -1 15.78 -65.95 TS 42 10 295
1854 NA CS 18:00:00 TS 16.00 -66.40 213 201 _____________O -1 16.00 -66.40 TS 45 9 293
1854 NA CS 21:00:00 TS 16.15 -66.85 201 179 _____________P -1 16.15 -66.85 TS 45 9 289
1854 NA CS 1854-09-12 00:00:00 TS 16.30 -67.30 179 165 _____________O -1 16.30 -67.30 TS 45 9 292
1854 NA CS 03:00:00 TS 16.50 -67.76 169 163 _____________P -1 16.50 -67.76 TS 45 10 295
1854 NA CS 06:00:00 TS 16.70 -68.20 171 145 _____________O -1 16.70 -68.20 TS 45 9 294
1854 NA CS 09:00:00 TS 16.86 -68.60 145 134 _____________P -1 16.86 -68.60 TS 45 8 291
1854 NA CS 12:00:00 TS 17.00 -69.00 135 130 _____________O -1 17.00 -69.00 TS 45 8 287
1854 NA CS 15:00:00 TS 17.11 -69.44 138 116 _____________P -1 17.11 -69.44 TS 45 9 283
1854 NA CS 18:00:00 TS 17.20 -69.90 116 100 _____________O -1 17.20 -69.90 TS 45 9 279
1854 NA CS 21:00:00 TS 17.26 -70.35 100 71 _____________P -1 17.26 -70.35 TS 45 9 277
1854 NA CS 1854-09-13 00:00:00 TS 17.30 -70.80 71 39 _____________O -1 17.30 -70.80 TS 45 9 276
1854 NA CS 03:00:00 TS 17.35 -71.26 35 22 _____________P -1 17.35 -71.26 TS 45 9 277
1854 NA CS 06:00:00 TS 17.40 -71.70 38 38 _____________O -1 17.40 -71.70 TS 45 8 275
1854 NA CS 09:00:00 TS 17.43 -72.12 69 69 _____________P -1 17.43 -72.12 TS 42 8 277
1854 NA CS 12:00:00 TS 17.50 -72.50 74 44 _____________O -1 17.50 -72.50 TS 40 7 291
1854 NA CS 15:00:00 TS 17.68 -72.81 44 30 _____________P -1 17.68 -72.81 TS 40 7 305
1854 NA CS 18:00:00 TS 17.90 -73.10 33 11 _____________O -1 17.90 -73.10 TS 40 7 307
1854 NA CS 21:00:00 TS 18.09 -73.40 11 0 _____________P -1 18.09 -73.40 TS 40 7 305
1854 NA NA 1854-09-14 00:00:00 TS 18.30 -73.70 0 0 _____________O -1 18.30 -73.70 TS 40 7 308
1854 NA NA 03:00:00 TS 18.54 -74.01 0 0 _____________P -1 18.54 -74.01 TS 37 8 311
1854 NA CS 06:00:00 TS 18.80 -74.30 22 22 _____________O -1 18.80 -74.30 TS 35 8 311
1854 NA CS 09:00:00 TS 19.05 -74.63 59 59 _____________P -1 19.05 -74.63 TS 35 7 317
1854 NA CS 12:00:00 TS 19.30 -74.80 70 54 _____________O -1 19.30 -74.80 TS 35 5 5
1854 NA CS 15:00:00 TS 19.56 -74.59 49 33 _____________P -1 19.56 -74.59 TS 35 7 43
1854 NA CS 18:00:00 TS 19.80 -74.30 33 11 _____________O -1 19.80 -74.30 TS 35 6 34
1854 NA CS 21:00:00 TS 20.01 -74.26 11 0 _____________P -1 20.01 -74.26 TS 32 4 0
1854 NA NA 1854-09-15 00:00:00 TS 20.20 -74.30 0 0 _____________O -1 20.20 -74.30 TD 30 4 355
1854 NA NA 03:00:00 TS 20.36 -74.30 15 15 _____________P -1 20.36 -74.30 TD 30 3 0
1854 NA NA 06:00:00 TS 20.50 -74.30 23 23 _____________O -1 20.50 -74.30 TD 30 2 6
1854 NA NA 09:00:00 TS 20.61 -74.30 30 30 _____________P -1 20.61 -74.30 TD 25 2 8
1854 NA NA 12:00:00 ET 20.70 -74.30 38 _____________O -1 20.70 -74.30 EX 20 2 0